createdAt,value
2018-06-29T00:01:22.967Z,2.63
2018-06-29T00:06:07.381Z,2.90
2018-06-29T00:10:51.700Z,2.57
2018-06-29T00:15:36.147Z,2.30
2018-06-29T00:20:20.522Z,2.70
2018-06-29T00:25:04.932Z,2.70
2018-06-29T00:29:49.463Z,2.47
2018-06-29T00:34:33.886Z,2.60
2018-06-29T00:39:18.345Z,2.70
2018-06-29T00:44:03.994Z,2.83
2018-06-29T00:48:48.414Z,2.47
2018-06-29T00:53:32.751Z,2.63
2018-06-29T00:58:17.118Z,2.37
2018-06-29T01:03:01.478Z,2.70
2018-06-29T01:07:45.826Z,2.50
2018-06-29T01:12:30.253Z,2.50
2018-06-29T01:17:14.672Z,2.60
2018-06-29T01:21:59.078Z,2.70
2018-06-29T01:26:43.454Z,2.57
2018-06-29T01:31:27.903Z,2.70
2018-06-29T01:36:12.218Z,2.73
2018-06-29T01:40:56.570Z,2.53
2018-06-29T01:45:41.491Z,2.57
2018-06-29T01:50:25.873Z,2.67
2018-06-29T01:55:10.209Z,2.60
2018-06-29T01:59:54.569Z,2.60
2018-06-29T02:04:38.925Z,2.40
2018-06-29T02:09:23.291Z,3.17
2018-06-29T02:14:07.622Z,2.90
2018-06-29T02:18:52.140Z,2.77
2018-06-29T02:23:36.442Z,2.70
2018-06-29T02:28:20.901Z,2.40
2018-06-29T02:33:05.235Z,2.80
2018-06-29T02:37:49.566Z,2.50
2018-06-29T02:42:33.933Z,2.40
2018-06-29T02:47:18.307Z,3.03
2018-06-29T02:52:02.663Z,2.37
2018-06-29T02:56:47.174Z,2.87
2018-06-29T03:01:31.679Z,2.93
2018-06-29T03:06:16.123Z,2.80
2018-06-29T03:11:00.564Z,2.93
2018-06-29T03:15:44.947Z,2.80
2018-06-29T03:20:29.373Z,2.50
2018-06-29T03:25:13.686Z,2.97
2018-06-29T03:29:58.200Z,3.47
2018-06-29T03:34:42.673Z,2.80
2018-06-29T03:39:27.077Z,3.47
2018-06-29T03:44:11.566Z,2.90
2018-06-29T03:48:56.023Z,2.83
2018-06-29T03:53:40.378Z,3.00
2018-06-29T03:58:24.826Z,2.57
2018-06-29T04:03:09.409Z,2.57
2018-06-29T04:07:53.948Z,3.80
2018-06-29T04:12:38.242Z,2.90
2018-06-29T04:17:22.915Z,3.23
2018-06-29T04:22:07.432Z,2.73
2018-06-29T04:26:52.015Z,2.90
2018-06-29T04:31:36.565Z,3.37
2018-06-29T04:36:20.943Z,3.57
2018-06-29T04:41:05.372Z,3.00
2018-06-29T04:45:49.773Z,2.57
2018-06-29T04:50:33.841Z,2.83
2018-06-29T04:55:18.201Z,2.83
2018-06-29T05:00:02.835Z,2.80
2018-06-29T05:04:47.369Z,3.10
2018-06-29T05:09:31.797Z,3.30
2018-06-29T05:14:16.370Z,3.27
2018-06-29T05:19:00.754Z,3.20
2018-06-29T05:23:45.199Z,2.93
2018-06-29T05:28:29.614Z,2.90
2018-06-29T05:33:14.158Z,2.90
2018-06-29T05:37:58.497Z,3.13
2018-06-29T05:42:43.192Z,3.27
2018-06-29T05:47:27.648Z,3.33
2018-06-29T05:52:12.116Z,3.60
2018-06-29T05:56:56.603Z,2.90
2018-06-29T06:01:41.252Z,3.43
2018-06-29T06:06:25.841Z,3.40
2018-06-29T06:11:10.259Z,3.50
2018-06-29T06:15:54.674Z,3.30
2018-06-29T06:20:39.128Z,3.50
2018-06-29T06:25:23.523Z,3.67
2018-06-29T06:30:08.426Z,3.33
2018-06-29T06:34:53.330Z,3.23
2018-06-29T06:39:43.087Z,3.07
2018-06-29T06:44:27.545Z,3.40
2018-06-29T06:49:11.858Z,3.70
2018-06-29T06:53:56.363Z,3.80
2018-06-29T06:58:40.752Z,3.47
2018-06-29T07:03:25.147Z,3.63
2018-06-29T07:08:09.592Z,3.37
2018-06-29T07:12:54.043Z,3.77
2018-06-29T07:17:38.556Z,3.57
2018-06-29T07:22:23.034Z,3.33
2018-06-29T07:27:07.482Z,3.60
2018-06-29T07:31:51.823Z,3.73
2018-06-29T07:36:36.376Z,3.53
2018-06-29T07:41:20.755Z,3.23
2018-06-29T07:46:05.168Z,3.60
2018-06-29T07:50:49.521Z,3.73
2018-06-29T07:55:33.945Z,3.47
2018-06-29T08:00:18.628Z,3.43
2018-06-29T08:05:03.130Z,3.40
2018-06-29T08:09:47.515Z,3.33
2018-06-29T08:14:31.935Z,3.47
2018-06-29T08:19:16.402Z,4.00
2018-06-29T08:24:00.748Z,3.07
2018-06-29T08:28:45.202Z,3.50
2018-06-29T08:33:29.564Z,3.27
2018-06-29T08:38:14.014Z,3.90
2018-06-29T08:42:59.582Z,3.90
2018-06-29T08:47:43.954Z,3.50
2018-06-29T08:52:28.297Z,3.90
2018-06-29T08:57:12.723Z,3.67
2018-06-29T09:01:57.260Z,3.53
2018-06-29T09:06:41.816Z,2.83
2018-06-29T09:11:26.287Z,3.47
2018-06-29T09:16:10.754Z,3.40
2018-06-29T09:20:55.228Z,3.13
2018-06-29T09:25:39.636Z,3.77
2018-06-29T09:30:24.310Z,3.40
2018-06-29T09:35:08.753Z,3.15
2018-06-29T09:39:53.110Z,2.90
2018-06-29T09:44:37.501Z,3.00
2018-06-29T09:49:21.942Z,3.12
2018-06-29T09:54:06.366Z,2.80
2018-06-29T09:58:50.762Z,3.12
2018-06-29T10:03:35.332Z,2.95
2018-06-29T10:08:19.716Z,2.52
2018-06-29T10:13:04.466Z,2.25
2018-06-29T10:17:49.191Z,2.45
2018-06-29T10:22:33.892Z,2.20
2018-06-29T10:27:18.240Z,2.30
2018-06-29T10:32:02.827Z,2.35
2018-06-29T10:36:46.855Z,2.45
2018-06-29T10:41:31.302Z,1.90
2018-06-29T10:46:15.683Z,1.90
2018-06-29T10:51:00.100Z,2.10
2018-06-29T10:55:44.718Z,1.90
2018-06-29T11:00:29.111Z,1.52
2018-06-29T11:05:13.581Z,1.70
2018-06-29T11:09:57.986Z,1.92
2018-06-29T11:14:42.496Z,2.05
2018-06-29T11:19:26.903Z,1.50
2018-06-29T11:24:12.028Z,1.50
2018-06-29T11:28:56.351Z,1.70
2018-06-29T11:33:40.818Z,1.40
2018-06-29T11:38:25.221Z,1.62
2018-06-29T11:43:09.549Z,1.45
2018-06-29T11:47:54.091Z,1.30
2018-06-29T11:52:38.828Z,1.00
2018-06-29T11:57:23.257Z,1.45
2018-06-29T12:02:07.850Z,1.40
2018-06-29T12:06:52.333Z,1.67
2018-06-29T12:11:36.800Z,1.70
2018-06-29T12:16:21.150Z,2.37
2018-06-29T12:21:05.636Z,3.75
2018-06-29T12:25:50.057Z,8.48
2018-06-29T12:30:34.539Z,4.55
2018-06-29T12:35:19.940Z,8.05
2018-06-29T12:40:04.453Z,1.60
2018-06-29T12:44:49.762Z,1.60
2018-06-29T12:49:34.206Z,1.32
2018-06-29T12:54:18.655Z,1.40
2018-06-29T12:59:03.031Z,1.47
2018-06-29T13:03:47.481Z,1.60
2018-06-29T13:08:32.034Z,1.20
2018-06-29T13:13:16.421Z,1.22
2018-06-29T13:18:01.014Z,1.30
2018-06-29T13:22:45.471Z,1.40
2018-06-29T13:27:29.915Z,1.30
2018-06-29T13:32:14.283Z,1.20
2018-06-29T13:36:58.724Z,1.30
2018-06-29T13:41:45.171Z,1.65
2018-06-29T13:46:29.610Z,1.67
2018-06-29T13:51:14.290Z,1.87
2018-06-29T13:55:58.715Z,1.30
2018-06-29T14:00:43.134Z,1.42
2018-06-29T14:05:27.682Z,1.75
2018-06-29T14:10:12.200Z,1.60
2018-06-29T14:14:56.596Z,1.98
2018-06-29T14:19:40.998Z,1.42
2018-06-29T14:24:25.577Z,1.47
2018-06-29T14:29:10.149Z,1.50
2018-06-29T14:33:54.666Z,1.30
2018-06-29T14:38:39.105Z,1.70
2018-06-29T14:43:23.125Z,1.50
2018-06-29T14:48:07.407Z,1.50
2018-06-29T14:52:51.885Z,1.30
2018-06-29T14:57:36.371Z,1.32
2018-06-29T15:02:20.751Z,1.80
2018-06-29T15:07:06.068Z,1.50
2018-06-29T15:11:50.589Z,1.50
2018-06-29T15:16:35.331Z,1.45
2018-06-29T15:21:19.852Z,1.40
2018-06-29T15:26:04.305Z,1.60
2018-06-29T15:30:48.748Z,1.50
2018-06-29T15:35:33.267Z,1.40
2018-06-29T15:40:17.639Z,1.40
2018-06-29T15:45:02.044Z,1.30
2018-06-29T15:49:46.379Z,1.50
2018-06-29T15:54:30.946Z,1.27
2018-06-29T15:59:15.370Z,1.40
2018-06-29T16:04:00.290Z,1.10
2018-06-29T16:08:44.871Z,1.25
2018-06-29T16:13:29.294Z,1.30
2018-06-29T16:18:13.908Z,1.25
2018-06-29T16:22:58.295Z,1.30
2018-06-29T16:27:42.922Z,1.27
2018-06-29T16:32:27.304Z,1.20
2018-06-29T16:37:11.682Z,1.07
2018-06-29T16:41:55.745Z,1.50
2018-06-29T16:46:40.170Z,1.40
2018-06-29T16:51:24.471Z,1.37
2018-06-29T16:56:09.268Z,1.30
2018-06-29T17:00:54.126Z,1.20
2018-06-29T17:05:39.149Z,1.60
2018-06-29T17:10:24.070Z,1.60
2018-06-29T17:15:09.098Z,1.40
2018-06-29T17:19:54.871Z,1.37
2018-06-29T17:24:42.238Z,1.60
2018-06-29T17:29:26.935Z,1.62
2018-06-29T17:34:12.152Z,1.42
2018-06-29T17:38:56.401Z,1.50
2018-06-29T17:43:41.011Z,1.75
2018-06-29T17:48:25.426Z,1.90
2018-06-29T17:53:10.183Z,1.80
2018-06-29T17:57:54.753Z,1.45
2018-06-29T18:02:39.281Z,1.92
2018-06-29T18:07:23.846Z,1.80
2018-06-29T18:12:08.308Z,1.50
2018-06-29T18:16:52.891Z,2.30
2018-06-29T18:21:37.339Z,2.47
2018-06-29T18:26:21.436Z,2.40
2018-06-29T18:31:05.976Z,1.93
2018-06-29T18:35:50.998Z,1.67
2018-06-29T18:40:35.772Z,1.90
2018-06-29T18:45:20.689Z,1.87
2018-06-29T18:50:05.720Z,2.07
2018-06-29T18:54:50.510Z,1.87
2018-06-29T18:59:35.187Z,1.70
2018-06-29T19:04:19.575Z,2.10
2018-06-29T19:09:06.193Z,2.17
2018-06-29T19:13:51.078Z,2.10
2018-06-29T19:18:36.094Z,2.20
2018-06-29T19:23:20.864Z,1.97
2018-06-29T19:28:05.732Z,2.03
2018-06-29T19:32:50.844Z,2.33
2018-06-29T19:37:37.345Z,1.90
2018-06-29T19:42:22.340Z,2.30
2018-06-29T19:47:07.418Z,2.50
2018-06-29T19:51:52.101Z,2.43
2018-06-29T19:56:36.656Z,1.97
2018-06-29T20:01:21.013Z,2.60
2018-06-29T20:06:05.771Z,2.60
2018-06-29T20:10:50.357Z,2.90
2018-06-29T20:15:34.771Z,2.93
2018-06-29T20:20:21.516Z,2.30
2018-06-29T20:25:08.031Z,2.83
2018-06-29T20:29:54.545Z,3.03
2018-06-29T20:34:38.592Z,2.57
2018-06-29T20:39:22.909Z,3.00
2018-06-29T20:44:07.658Z,2.87
2018-06-29T20:48:52.215Z,2.60
2018-06-29T20:53:37.350Z,2.97
2018-06-29T20:58:21.758Z,2.70
2018-06-29T21:03:06.203Z,2.70
2018-06-29T21:07:50.294Z,3.13
2018-06-29T21:12:34.761Z,3.00
2018-06-29T21:17:19.131Z,3.10
2018-06-29T21:22:03.584Z,3.10
2018-06-29T21:26:48.053Z,3.20
2018-06-29T21:31:33.518Z,3.00
2018-06-29T21:36:17.851Z,3.20
2018-06-29T21:41:02.202Z,3.13
2018-06-29T21:45:46.640Z,3.30
2018-06-29T21:50:31.023Z,3.43
2018-06-29T21:55:15.416Z,3.23
2018-06-29T21:59:59.795Z,3.03
2018-06-29T22:04:44.199Z,3.50
2018-06-29T22:09:28.598Z,3.13
2018-06-29T22:14:13.003Z,3.40
2018-06-29T22:18:57.433Z,3.50
2018-06-29T22:23:41.844Z,3.80
2018-06-29T22:28:26.255Z,3.30
2018-06-29T22:33:10.631Z,3.57
2018-06-29T22:37:55.042Z,3.50
2018-06-29T22:42:39.410Z,3.47
2018-06-29T22:47:23.934Z,3.50
2018-06-29T22:52:08.309Z,3.33
2018-06-29T22:56:52.741Z,3.27
2018-06-29T23:01:37.070Z,3.70
2018-06-29T23:06:21.707Z,3.43
2018-06-29T23:11:06.154Z,3.03
2018-06-29T23:15:50.498Z,3.20
2018-06-29T23:20:35.005Z,2.93
2018-06-29T23:25:19.347Z,3.50
2018-06-29T23:30:03.819Z,3.17
2018-06-29T23:34:48.227Z,3.10
2018-06-29T23:39:32.251Z,3.07
2018-06-29T23:44:16.606Z,3.53
2018-06-29T23:49:01.878Z,3.00
2018-06-29T23:53:46.254Z,3.67
2018-06-29T23:58:30.662Z,2.83
